createdAt,value
2017-04-23T00:00:16.750Z,929.09
2017-04-23T00:00:45.054Z,929.12
2017-04-23T00:01:13.222Z,929.11
2017-04-23T00:01:41.459Z,929.12
2017-04-23T00:02:09.768Z,929.12
2017-04-23T00:02:38.144Z,929.12
2017-04-23T00:03:06.350Z,929.12
2017-04-23T00:03:34.668Z,929.08
2017-04-23T00:04:02.898Z,929.13
2017-04-23T00:04:31.118Z,929.1
2017-04-23T00:04:59.470Z,929.1
2017-04-23T00:06:10.884Z,929.13
2017-04-23T00:06:39.187Z,929.11
2017-04-23T00:07:07.439Z,929.08
2017-04-23T00:07:35.676Z,929.07
2017-04-23T00:08:03.908Z,929.1
2017-04-23T00:08:32.157Z,929.07
2017-04-23T00:09:00.457Z,929.09
2017-04-23T00:09:28.752Z,929.11
2017-04-23T00:09:56.988Z,929.11
2017-04-23T00:10:25.197Z,929.03
2017-04-23T00:10:53.527Z,929.05
2017-04-23T00:12:04.840Z,929.09
2017-04-23T00:12:32.952Z,929.08
2017-04-23T00:13:01.198Z,929.07
2017-04-23T00:13:29.432Z,929.09
2017-04-23T00:13:57.747Z,929.04
2017-04-23T00:14:25.997Z,929.1
2017-04-23T00:14:54.203Z,929.1
2017-04-23T00:15:22.394Z,929.08
2017-04-23T00:15:50.727Z,929.07
2017-04-23T00:16:18.938Z,929.04
2017-04-23T00:16:47.175Z,929.1
2017-04-23T00:17:58.403Z,929.07
2017-04-23T00:18:26.703Z,929.07
2017-04-23T00:18:54.964Z,929.06
2017-04-23T00:19:23.287Z,929.06
2017-04-23T00:19:51.505Z,929.02
2017-04-23T00:20:19.846Z,929.05
2017-04-23T00:20:48.148Z,929.08
2017-04-23T00:21:16.438Z,929.09
2017-04-23T00:21:44.576Z,929.1
2017-04-23T00:22:12.878Z,929.07
2017-04-23T00:22:41.110Z,929.08
2017-04-23T00:23:52.519Z,929.12
2017-04-23T00:24:20.822Z,929.09
2017-04-23T00:24:49.078Z,929.09
2017-04-23T00:25:17.400Z,929.05
2017-04-23T00:25:45.714Z,929.08
2017-04-23T00:26:14.053Z,929.1
2017-04-23T00:26:42.167Z,929.08
2017-04-23T00:27:10.278Z,929.05
2017-04-23T00:27:38.608Z,929.08
2017-04-23T00:28:06.911Z,929.07
2017-04-23T00:28:35.172Z,929.07
2017-04-23T00:29:46.573Z,929.13
2017-04-23T00:30:14.591Z,929.09
2017-04-23T00:30:42.755Z,929.08
2017-04-23T00:31:10.980Z,929.08
2017-04-23T00:31:39.007Z,929.11
2017-04-23T00:32:07.343Z,929.14
2017-04-23T00:32:35.455Z,929.09
2017-04-23T00:33:03.554Z,929.13
2017-04-23T00:33:31.875Z,929.16
2017-04-23T00:34:00.178Z,929.13
2017-04-23T00:34:28.501Z,929.12
2017-04-23T00:35:39.903Z,929.14
2017-04-23T00:36:08.112Z,929.14
2017-04-23T00:36:36.269Z,929.14
2017-04-23T00:37:04.592Z,929.1
2017-04-23T00:37:32.906Z,929.13
2017-04-23T00:38:01.149Z,929.13
2017-04-23T00:38:29.353Z,929.14
2017-04-23T00:38:57.636Z,929.14
2017-04-23T00:39:25.879Z,929.18
2017-04-23T00:39:53.992Z,929.12
2017-04-23T00:40:22.321Z,929.14
2017-04-23T00:41:33.773Z,929.15
2017-04-23T00:42:01.986Z,929.17
2017-04-23T00:42:30.245Z,929.17
2017-04-23T00:42:58.570Z,929.25
2017-04-23T00:43:26.880Z,929.23
2017-04-23T00:43:55.030Z,929.24
2017-04-23T00:44:23.534Z,929.22
2017-04-23T00:44:51.732Z,929.24
2017-04-23T00:45:19.966Z,929.21
2017-04-23T00:45:48.179Z,929.23
2017-04-23T00:46:16.415Z,929.19
2017-04-23T00:47:27.812Z,929.23
2017-04-23T00:47:56.021Z,929.22
2017-04-23T00:48:24.180Z,929.16
2017-04-23T00:48:52.412Z,929.23
2017-04-23T00:49:20.722Z,929.2
2017-04-23T00:49:48.977Z,929.24
2017-04-23T00:50:17.182Z,929.21
2017-04-23T00:50:45.374Z,929.24
2017-04-23T00:51:13.699Z,929.25
2017-04-23T00:51:41.816Z,929.26
2017-04-23T00:52:10.050Z,929.21
2017-04-23T00:53:21.455Z,929.27
2017-04-23T00:53:49.672Z,929.2
2017-04-23T00:54:17.835Z,929.2
2017-04-23T00:54:45.973Z,929.23
2017-04-23T00:55:14.280Z,929.24
2017-04-23T00:55:42.529Z,929.21
2017-04-23T00:56:10.733Z,929.26
2017-04-23T00:56:39.018Z,929.22
2017-04-23T00:57:07.251Z,929.24
2017-04-23T00:57:35.381Z,929.24
2017-04-23T00:58:03.420Z,929.24
2017-04-23T00:59:14.637Z,929.25
2017-04-23T00:59:42.854Z,929.22
2017-04-23T01:00:11.117Z,929.24
2017-04-23T01:00:39.438Z,929.24
2017-04-23T01:01:07.653Z,929.23
2017-04-23T01:01:35.903Z,929.28
2017-04-23T01:02:04.107Z,929.27
2017-04-23T01:02:32.409Z,929.28
2017-04-23T01:03:00.642Z,929.28
2017-04-23T01:03:28.947Z,929.3
2017-04-23T01:03:57.274Z,929.26
2017-04-23T01:05:08.585Z,929.3
2017-04-23T01:05:36.896Z,929.34
2017-04-23T01:06:05.059Z,929.36
2017-04-23T01:06:33.293Z,929.36
2017-04-23T01:07:01.605Z,929.38
2017-04-23T01:07:29.755Z,929.38
2017-04-23T01:07:58.060Z,929.32
2017-04-23T01:08:26.350Z,929.35
2017-04-23T01:08:54.690Z,929.3
2017-04-23T01:09:22.893Z,929.33
2017-04-23T01:09:51.127Z,929.35
2017-04-23T01:11:02.443Z,929.34
2017-04-23T01:11:30.752Z,929.32
2017-04-23T01:11:58.916Z,929.35
2017-04-23T01:12:27.145Z,929.34
2017-04-23T01:12:55.455Z,929.32
2017-04-23T01:13:23.697Z,929.32
2017-04-23T01:13:52.001Z,929.32
2017-04-23T01:14:20.202Z,929.3
2017-04-23T01:14:48.446Z,929.32
2017-04-23T01:15:16.558Z,929.31
2017-04-23T01:15:44.883Z,929.33
2017-04-23T01:16:56.194Z,929.31
2017-04-23T01:17:24.495Z,929.27
2017-04-23T01:17:52.658Z,929.34
2017-04-23T01:18:20.888Z,929.36
2017-04-23T01:18:49.200Z,929.34
2017-04-23T01:19:17.541Z,929.36
2017-04-23T01:19:45.845Z,929.36
2017-04-23T01:20:14.044Z,929.35
2017-04-23T01:20:42.375Z,929.4
2017-04-23T01:21:10.678Z,929.34
2017-04-23T01:21:39.013Z,929.36
2017-04-23T01:22:50.330Z,929.36
2017-04-23T01:23:18.457Z,929.33
2017-04-23T01:23:46.617Z,929.33
2017-04-23T01:24:14.939Z,929.33
2017-04-23T01:24:43.162Z,929.35
2017-04-23T01:25:11.499Z,929.26
2017-04-23T01:25:39.808Z,929.29
2017-04-23T01:26:08.098Z,929.3
2017-04-23T01:26:36.433Z,929.32
2017-04-23T01:27:04.644Z,929.29
2017-04-23T01:27:32.883Z,929.3
2017-04-23T01:28:44.291Z,929.26
2017-04-23T01:29:12.603Z,929.27
2017-04-23T01:29:40.859Z,929.26
2017-04-23T01:30:09.184Z,929.22
2017-04-23T01:30:37.497Z,929.24
2017-04-23T01:31:05.838Z,929.28
2017-04-23T01:31:34.142Z,929.25
2017-04-23T01:32:02.437Z,929.23
2017-04-23T01:32:30.770Z,929.26
2017-04-23T01:32:59.084Z,929.23
2017-04-23T01:33:27.313Z,929.21
2017-04-23T01:34:38.721Z,929.22
2017-04-23T01:35:07.025Z,929.22
2017-04-23T01:35:35.185Z,929.21
2017-04-23T01:36:03.512Z,929.21
2017-04-23T01:36:31.819Z,929.2
2017-04-23T01:37:00.161Z,929.21
2017-04-23T01:37:28.462Z,929.18
2017-04-23T01:37:56.658Z,929.19
2017-04-23T01:38:24.702Z,929.22
2017-04-23T01:38:53.010Z,929.25
2017-04-23T01:39:21.344Z,929.22
2017-04-23T01:40:32.559Z,929.24
2017-04-23T01:41:00.865Z,929.29
2017-04-23T01:41:29.117Z,929.29
2017-04-23T01:41:57.443Z,929.31
2017-04-23T01:42:25.751Z,929.3
2017-04-23T01:42:54.010Z,929.29
2017-04-23T01:43:22.125Z,929.33
2017-04-23T01:43:50.321Z,929.35
2017-04-23T01:44:18.653Z,929.33
2017-04-23T01:44:46.866Z,929.38
2017-04-23T01:45:15.190Z,929.36
2017-04-23T01:46:26.593Z,929.35
2017-04-23T01:46:54.806Z,929.34
2017-04-23T01:47:23.055Z,929.34
2017-04-23T01:47:51.302Z,929.39
2017-04-23T01:48:19.623Z,929.36
2017-04-23T01:48:47.969Z,929.38
2017-04-23T01:49:16.184Z,929.38
2017-04-23T01:49:44.293Z,929.39
2017-04-23T01:50:12.432Z,929.41
2017-04-23T01:50:40.739Z,929.4
2017-04-23T01:51:08.881Z,929.39
2017-04-23T01:52:20.110Z,929.36
2017-04-23T01:52:48.413Z,929.39
2017-04-23T01:53:16.664Z,929.42
2017-04-23T01:53:44.994Z,929.39
2017-04-23T01:54:13.030Z,929.34
2017-04-23T01:54:41.285Z,929.33
2017-04-23T01:55:09.494Z,929.28
2017-04-23T01:55:37.694Z,929.32
2017-04-23T01:56:05.933Z,929.27
2017-04-23T01:56:34.143Z,929.28
2017-04-23T01:57:02.468Z,929.28
2017-04-23T01:58:13.890Z,929.26
2017-04-23T01:58:42.106Z,929.3
2017-04-23T01:59:10.363Z,929.29
2017-04-23T01:59:38.838Z,929.31
2017-04-23T02:00:07.152Z,929.28
2017-04-23T02:00:35.402Z,929.24
2017-04-23T02:01:03.618Z,929.3
2017-04-23T02:01:31.822Z,929.3
2017-04-23T02:02:00.060Z,929.28
2017-04-23T02:02:28.278Z,929.23
2017-04-23T02:02:56.607Z,929.21
2017-04-23T02:04:07.819Z,929.21
2017-04-23T02:04:36.125Z,929.21
2017-04-23T02:05:04.290Z,929.22
2017-04-23T02:05:32.612Z,929.23
2017-04-23T02:06:00.832Z,929.2
2017-04-23T02:06:29.178Z,929.19
2017-04-23T02:06:57.395Z,929.17
2017-04-23T02:07:25.679Z,929.19
2017-04-23T02:07:53.916Z,929.17
2017-04-23T02:08:21.944Z,929.2
2017-04-23T02:08:50.079Z,929.16
2017-04-23T02:10:01.482Z,929.17
2017-04-23T02:10:29.791Z,929.19
2017-04-23T02:10:57.952Z,929.19
2017-04-23T02:11:26.186Z,929.16
2017-04-23T02:11:54.494Z,929.16
2017-04-23T02:12:22.741Z,929.16
2017-04-23T02:12:51.050Z,929.15
2017-04-23T02:13:19.341Z,929.16
2017-04-23T02:13:47.665Z,929.13
2017-04-23T02:14:15.781Z,929.14
2017-04-23T02:14:44.029Z,929.14
2017-04-23T02:15:55.435Z,929.14
2017-04-23T02:16:23.557Z,929.11
2017-04-23T02:16:51.808Z,929.13
2017-04-23T02:17:20.129Z,929.15
2017-04-23T02:17:48.354Z,929.11
2017-04-23T02:18:16.605Z,929.1
2017-04-23T02:18:44.810Z,929.12
2017-04-23T02:19:13.009Z,929.07
2017-04-23T02:19:41.331Z,929.12
2017-04-23T02:20:09.354Z,929.15
2017-04-23T02:20:37.595Z,929.14
2017-04-23T02:21:49.005Z,929.12
2017-04-23T02:22:17.323Z,929.06
2017-04-23T02:22:45.580Z,929.08
2017-04-23T02:23:13.807Z,929.09
2017-04-23T02:23:41.930Z,929.09
2017-04-23T02:24:10.266Z,929.09
2017-04-23T02:24:38.475Z,929.1
2017-04-23T02:25:06.681Z,929.12
2017-04-23T02:25:35.030Z,929.09
2017-04-23T02:26:03.243Z,929.08
2017-04-23T02:26:31.479Z,929.08
2017-04-23T02:27:42.802Z,929.06
2017-04-23T02:28:11.018Z,929.04
2017-04-23T02:28:39.182Z,929.04
2017-04-23T02:29:07.419Z,929.05
2017-04-23T02:29:35.733Z,929.04
2017-04-23T02:30:03.980Z,929.02
2017-04-23T02:30:32.182Z,929.02
2017-04-23T02:31:00.478Z,929.05
2017-04-23T02:31:28.804Z,929.03
2017-04-23T02:31:56.923Z,929.05
2017-04-23T02:32:25.066Z,929.07
2017-04-23T02:33:36.468Z,929.05
2017-04-23T02:34:04.775Z,929.05
2017-04-23T02:34:33.025Z,929
2017-04-23T02:35:01.348Z,929.05
2017-04-23T02:35:29.661Z,929.05
2017-04-23T02:35:57.914Z,929.03
2017-04-23T02:36:26.026Z,929.05
2017-04-23T02:36:54.128Z,929.02
2017-04-23T02:37:22.448Z,929
2017-04-23T02:37:50.657Z,929.02
2017-04-23T02:38:18.989Z,929.03
2017-04-23T02:39:30.198Z,929.01
2017-04-23T02:39:58.760Z,928.99
2017-04-23T02:40:27.009Z,928.99
2017-04-23T02:40:55.337Z,928.99
2017-04-23T02:41:23.558Z,929
2017-04-23T02:41:51.899Z,928.99
2017-04-23T02:42:20.113Z,928.97
2017-04-23T02:42:48.310Z,928.91
2017-04-23T02:43:16.639Z,928.96
2017-04-23T02:43:44.849Z,928.99
2017-04-23T02:44:13.178Z,928.91
2017-04-23T02:45:24.576Z,928.9
2017-04-23T02:45:52.786Z,928.9
2017-04-23T02:46:20.947Z,928.89
2017-04-23T02:46:49.277Z,928.87
2017-04-23T02:47:17.493Z,928.91
2017-04-23T02:47:45.837Z,928.9
2017-04-23T02:48:14.038Z,928.87
2017-04-23T02:48:42.329Z,928.92
2017-04-23T02:49:10.650Z,928.88
2017-04-23T02:49:38.769Z,928.87
2017-04-23T02:50:07.094Z,928.85
2017-04-23T02:51:18.403Z,928.89
2017-04-23T02:51:46.620Z,928.87
2017-04-23T02:52:14.878Z,928.86
2017-04-23T02:52:43.105Z,928.88
2017-04-23T02:53:11.416Z,928.87
2017-04-23T02:53:39.758Z,928.86
2017-04-23T02:54:08.058Z,928.83
2017-04-23T02:54:36.351Z,928.82
2017-04-23T02:55:04.677Z,928.85
2017-04-23T02:55:32.884Z,928.82
2017-04-23T02:56:01.021Z,928.82
2017-04-23T02:57:12.334Z,928.8
2017-04-23T02:57:40.640Z,928.76
2017-04-23T02:58:09.095Z,928.78
2017-04-23T02:58:37.325Z,928.76
2017-04-23T02:59:05.546Z,928.8
2017-04-23T02:59:33.892Z,928.78
2017-04-23T03:00:02.100Z,928.78
2017-04-23T03:00:30.394Z,928.79
2017-04-23T03:00:58.715Z,928.76
2017-04-23T03:01:27.015Z,928.75
2017-04-23T03:01:55.343Z,928.78
2017-04-23T03:03:06.751Z,928.75
2017-04-23T03:03:35.051Z,928.79
2017-04-23T03:04:03.309Z,928.79
2017-04-23T03:04:31.635Z,928.76
2017-04-23T03:04:59.855Z,928.78
2017-04-23T03:05:28.195Z,928.77
2017-04-23T03:05:56.497Z,928.74
2017-04-23T03:06:24.790Z,928.71
2017-04-23T03:06:53.019Z,928.73
2017-04-23T03:07:21.133Z,928.72
2017-04-23T03:07:49.373Z,928.71
2017-04-23T03:09:00.772Z,928.7
2017-04-23T03:09:29.075Z,928.66
2017-04-23T03:09:57.231Z,928.68
2017-04-23T03:10:25.464Z,928.63
2017-04-23T03:10:53.777Z,928.63
2017-04-23T03:11:21.837Z,928.63
2017-04-23T03:11:50.039Z,928.67
2017-04-23T03:12:18.236Z,928.65
2017-04-23T03:12:46.560Z,928.63
2017-04-23T03:13:14.770Z,928.67
2017-04-23T03:13:43.001Z,928.63
2017-04-23T03:14:54.313Z,928.64
2017-04-23T03:15:22.613Z,928.65
2017-04-23T03:15:50.772Z,928.61
2017-04-23T03:16:18.998Z,928.64
2017-04-23T03:16:47.310Z,928.64
2017-04-23T03:17:15.654Z,928.63
2017-04-23T03:17:43.958Z,928.65
2017-04-23T03:18:12.156Z,928.65
2017-04-23T03:18:40.387Z,928.57
2017-04-23T03:19:08.503Z,928.58
2017-04-23T03:19:36.830Z,928.59
2017-04-23T03:20:48.137Z,928.61
2017-04-23T03:21:16.345Z,928.61
2017-04-23T03:21:44.415Z,928.6
2017-04-23T03:22:12.369Z,928.61
2017-04-23T03:22:40.677Z,928.61
2017-04-23T03:23:08.929Z,928.64
2017-04-23T03:23:37.228Z,928.62
2017-04-23T03:24:05.513Z,928.63
2017-04-23T03:24:33.743Z,928.57
2017-04-23T03:25:01.950Z,928.63
2017-04-23T03:25:30.274Z,928.59
2017-04-23T03:26:41.674Z,928.64
2017-04-23T03:27:09.886Z,928.58
2017-04-23T03:27:38.052Z,928.6
2017-04-23T03:28:06.189Z,928.59
2017-04-23T03:28:34.498Z,928.6
2017-04-23T03:29:02.746Z,928.62
2017-04-23T03:29:30.859Z,928.59
2017-04-23T03:29:59.145Z,928.62
2017-04-23T03:30:27.471Z,928.6
2017-04-23T03:30:55.774Z,928.57
2017-04-23T03:31:24.099Z,928.6
2017-04-23T03:32:35.501Z,928.6
2017-04-23T03:33:03.713Z,928.56
2017-04-23T03:33:31.967Z,928.53
2017-04-23T03:34:00.198Z,928.57
2017-04-23T03:34:28.508Z,928.6
2017-04-23T03:34:56.848Z,928.59
2017-04-23T03:35:25.054Z,928.59
2017-04-23T03:35:53.346Z,928.59
2017-04-23T03:36:21.479Z,928.64
2017-04-23T03:36:49.689Z,928.58
2017-04-23T03:37:18.018Z,928.56
2017-04-23T03:38:29.422Z,928.57
2017-04-23T03:38:57.630Z,928.55
2017-04-23T03:39:26.085Z,928.56
2017-04-23T03:39:54.411Z,928.55
2017-04-23T03:40:22.721Z,928.52
2017-04-23T03:40:50.962Z,928.53
2017-04-23T03:41:19.260Z,928.51
2017-04-23T03:41:47.461Z,928.5
2017-04-23T03:42:15.701Z,928.53
2017-04-23T03:42:44.002Z,928.55
2017-04-23T03:43:12.323Z,928.53
2017-04-23T03:44:23.724Z,928.52
2017-04-23T03:44:51.833Z,928.54
2017-04-23T03:45:19.986Z,928.56
2017-04-23T03:45:48.220Z,928.56
2017-04-23T03:46:16.532Z,928.56
2017-04-23T03:46:44.876Z,928.56
2017-04-23T03:47:13.081Z,928.52
2017-04-23T03:47:41.274Z,928.52
2017-04-23T03:48:09.509Z,928.53
2017-04-23T03:48:37.813Z,928.52
2017-04-23T03:49:06.903Z,928.51
2017-04-23T03:50:18.308Z,928.52
2017-04-23T03:50:46.437Z,928.53
2017-04-23T03:51:14.685Z,928.54
2017-04-23T03:51:42.821Z,928.52
2017-04-23T03:52:11.128Z,928.56
2017-04-23T03:52:39.279Z,928.52
2017-04-23T03:53:07.484Z,928.56
2017-04-23T03:53:35.590Z,928.53
2017-04-23T03:54:03.916Z,928.54
2017-04-23T03:54:31.936Z,928.52
2017-04-23T03:55:00.263Z,928.56
2017-04-23T03:56:11.477Z,928.55
2017-04-23T03:56:39.691Z,928.58
2017-04-23T03:57:07.947Z,928.57
2017-04-23T03:57:36.271Z,928.55
2017-04-23T03:58:04.579Z,928.56
2017-04-23T03:58:32.915Z,928.58
2017-04-23T03:59:01.212Z,928.53
2017-04-23T03:59:29.496Z,928.54
2017-04-23T03:59:57.823Z,928.58
2017-04-23T04:00:26.035Z,928.55
2017-04-23T04:00:53.984Z,928.52
2017-04-23T04:02:05.293Z,928.5
2017-04-23T04:02:33.597Z,928.54
2017-04-23T04:03:01.852Z,928.51
2017-04-23T04:03:30.176Z,928.52
2017-04-23T04:03:58.484Z,928.57
2017-04-23T04:04:26.826Z,928.51
2017-04-23T04:04:55.123Z,928.52
2017-04-23T04:05:23.414Z,928.53
2017-04-23T04:05:51.741Z,928.52
2017-04-23T04:06:19.951Z,928.54
2017-04-23T04:06:48.281Z,928.52
2017-04-23T04:07:59.590Z,928.52
2017-04-23T04:08:27.613Z,928.49
2017-04-23T04:08:55.773Z,928.56
2017-04-23T04:09:24.006Z,928.5
2017-04-23T04:09:52.319Z,928.5
2017-04-23T04:10:20.566Z,928.5
2017-04-23T04:10:48.780Z,928.48
2017-04-23T04:11:16.972Z,928.48
2017-04-23T04:11:45.206Z,928.49
2017-04-23T04:12:13.411Z,928.51
2017-04-23T04:12:41.546Z,928.49
2017-04-23T04:13:52.858Z,928.48
2017-04-23T04:14:21.066Z,928.45
2017-04-23T04:14:49.237Z,928.46
2017-04-23T04:15:17.379Z,928.45
2017-04-23T04:15:45.691Z,928.43
2017-04-23T04:16:13.935Z,928.44
2017-04-23T04:16:42.236Z,928.45
2017-04-23T04:17:10.529Z,928.43
2017-04-23T04:17:38.754Z,928.45
2017-04-23T04:18:06.966Z,928.45
2017-04-23T04:18:35.192Z,928.47
2017-04-23T04:19:46.593Z,928.48
2017-04-23T04:20:14.898Z,928.46
2017-04-23T04:20:43.055Z,928.43
2017-04-23T04:21:11.382Z,928.41
2017-04-23T04:21:39.689Z,928.38
2017-04-23T04:22:07.932Z,928.38
2017-04-23T04:22:36.233Z,928.41
2017-04-23T04:23:04.442Z,928.45
2017-04-23T04:23:32.766Z,928.38
2017-04-23T04:24:00.974Z,928.39
2017-04-23T04:24:29.214Z,928.42
2017-04-23T04:25:40.526Z,928.39
2017-04-23T04:26:08.832Z,928.38
2017-04-23T04:26:37.084Z,928.4
2017-04-23T04:27:05.407Z,928.33
2017-04-23T04:27:33.715Z,928.37
2017-04-23T04:28:01.867Z,928.35
2017-04-23T04:28:30.172Z,928.31
2017-04-23T04:28:58.463Z,928.39
2017-04-23T04:29:26.791Z,928.32
2017-04-23T04:29:54.995Z,928.34
2017-04-23T04:30:23.129Z,928.3
2017-04-23T04:31:34.532Z,928.35
2017-04-23T04:32:02.833Z,928.3
2017-04-23T04:32:31.084Z,928.33
2017-04-23T04:32:59.322Z,928.28
2017-04-23T04:33:27.629Z,928.33
2017-04-23T04:33:55.874Z,928.31
2017-04-23T04:34:24.178Z,928.3
2017-04-23T04:34:52.462Z,928.28
2017-04-23T04:35:20.694Z,928.27
2017-04-23T04:35:48.905Z,928.32
2017-04-23T04:36:17.228Z,928.29
2017-04-23T04:37:28.629Z,928.31
2017-04-23T04:37:56.935Z,928.31
2017-04-23T04:38:25.194Z,928.28
2017-04-23T04:38:53.519Z,928.28
2017-04-23T04:39:21.837Z,928.28
2017-04-23T04:39:50.172Z,928.28
2017-04-23T04:40:18.472Z,928.26
2017-04-23T04:40:46.674Z,928.28
2017-04-23T04:41:14.996Z,928.29
2017-04-23T04:41:43.206Z,928.26
2017-04-23T04:42:11.534Z,928.26
2017-04-23T04:43:22.937Z,928.29
2017-04-23T04:43:51.243Z,928.3
2017-04-23T04:44:19.499Z,928.27
2017-04-23T04:44:47.637Z,928.29
2017-04-23T04:45:15.944Z,928.24
2017-04-23T04:45:44.187Z,928.28
2017-04-23T04:46:12.387Z,928.26
2017-04-23T04:46:40.575Z,928.25
2017-04-23T04:47:08.807Z,928.26
2017-04-23T04:47:36.921Z,928.25
2017-04-23T04:48:05.241Z,928.26
2017-04-23T04:49:16.643Z,928.29
2017-04-23T04:49:44.947Z,928.28
2017-04-23T04:50:13.002Z,928.27
2017-04-23T04:50:41.327Z,928.23
2017-04-23T04:51:09.637Z,928.25
2017-04-23T04:51:37.880Z,928.24
2017-04-23T04:52:06.087Z,928.29
2017-04-23T04:52:34.370Z,928.27
2017-04-23T04:53:02.696Z,928.28
2017-04-23T04:53:30.906Z,928.25
2017-04-23T04:53:59.230Z,928.24
2017-04-23T04:55:10.539Z,928.28
2017-04-23T04:55:38.754Z,928.31
2017-04-23T04:56:06.907Z,928.3
2017-04-23T04:56:35.229Z,928.28
2017-04-23T04:57:03.447Z,928.29
2017-04-23T04:57:31.785Z,928.35
2017-04-23T04:57:59.995Z,928.29
2017-04-23T04:58:28.285Z,928.28
2017-04-23T04:58:56.608Z,928.28
2017-04-23T04:59:24.815Z,928.31
2017-04-23T04:59:53.047Z,928.29
2017-04-23T05:01:04.455Z,928.27
2017-04-23T05:01:32.755Z,928.25
2017-04-23T05:02:01.007Z,928.29
2017-04-23T05:02:29.141Z,928.27
2017-04-23T05:02:57.451Z,928.31
2017-04-23T05:03:25.514Z,928.31
2017-04-23T05:03:53.721Z,928.25
2017-04-23T05:04:21.916Z,928.26
2017-04-23T05:04:50.246Z,928.28
2017-04-23T05:05:18.549Z,928.24
2017-04-23T05:05:46.791Z,928.23
2017-04-23T05:06:58.188Z,928.27
2017-04-23T05:07:26.423Z,928.24
2017-04-23T05:07:54.652Z,928.21
2017-04-23T05:08:22.876Z,928.25
2017-04-23T05:08:51.090Z,928.23
2017-04-23T05:09:19.336Z,928.22
2017-04-23T05:09:47.362Z,928.23
2017-04-23T05:10:15.562Z,928.21
2017-04-23T05:10:43.884Z,928.19
2017-04-23T05:11:12.088Z,928.18
2017-04-23T05:11:40.313Z,928.15
2017-04-23T05:12:51.632Z,928.19
2017-04-23T05:13:19.755Z,928.14
2017-04-23T05:13:47.910Z,928.13
2017-04-23T05:14:16.139Z,928.09
2017-04-23T05:14:44.358Z,928.18
2017-04-23T05:15:12.698Z,928.11
2017-04-23T05:15:40.900Z,928.1
2017-04-23T05:16:09.097Z,928.09
2017-04-23T05:16:37.423Z,928.07
2017-04-23T05:17:05.631Z,928.17
2017-04-23T05:17:33.672Z,928.07
2017-04-23T05:18:44.979Z,928.11
2017-04-23T05:19:13.281Z,928.11
2017-04-23T05:19:41.531Z,928.08
2017-04-23T05:20:09.768Z,928.11
2017-04-23T05:20:38.075Z,928.09
2017-04-23T05:21:06.322Z,928.1
2017-04-23T05:21:34.626Z,928.07
2017-04-23T05:22:02.914Z,928.09
2017-04-23T05:22:31.142Z,928.09
2017-04-23T05:22:59.154Z,928.07
2017-04-23T05:23:27.385Z,928.04
2017-04-23T05:24:38.691Z,928.08
2017-04-23T05:25:06.810Z,928.02
2017-04-23T05:25:35.061Z,928.02
2017-04-23T05:26:03.287Z,928.04
2017-04-23T05:26:31.598Z,927.97
2017-04-23T05:26:59.764Z,927.98
2017-04-23T05:27:27.972Z,928
2017-04-23T05:27:56.257Z,928.01
2017-04-23T05:28:24.483Z,928.01
2017-04-23T05:28:52.690Z,927.99
2017-04-23T05:29:20.932Z,928.04
2017-04-23T05:30:32.338Z,928.03
2017-04-23T05:31:00.548Z,928.03
2017-04-23T05:31:28.800Z,928.03
2017-04-23T05:31:57.125Z,928.02
2017-04-23T05:32:25.433Z,928.04
2017-04-23T05:32:53.767Z,928.05
2017-04-23T05:33:22.064Z,928.09
2017-04-23T05:33:50.352Z,928.05
2017-04-23T05:34:18.587Z,928.03
2017-04-23T05:34:46.803Z,928.06
2017-04-23T05:35:15.034Z,928.1
2017-04-23T05:36:26.339Z,928.09
2017-04-23T05:36:54.551Z,928.1
2017-04-23T05:37:22.802Z,928.11
2017-04-23T05:37:51.025Z,928.08
2017-04-23T05:38:19.334Z,928.09
2017-04-23T05:38:47.675Z,928.07
2017-04-23T05:39:15.974Z,928.08
2017-04-23T05:39:44.164Z,928.07
2017-04-23T05:40:12.396Z,928.09
2017-04-23T05:40:40.702Z,928.13
2017-04-23T05:41:08.928Z,928.08
2017-04-23T05:42:20.230Z,928.07
2017-04-23T05:42:48.535Z,928.11
2017-04-23T05:43:16.784Z,928.16
2017-04-23T05:43:44.917Z,928.1
2017-04-23T05:44:13.229Z,928.15
2017-04-23T05:44:41.476Z,928.11
2017-04-23T05:45:09.774Z,928.14
2017-04-23T05:45:38.058Z,928.14
2017-04-23T05:46:06.292Z,928.1
2017-04-23T05:46:34.500Z,928.15
2017-04-23T05:47:02.636Z,928.12
2017-04-23T05:48:13.945Z,928.09
2017-04-23T05:48:42.161Z,928.08
2017-04-23T05:49:10.317Z,928.1
2017-04-23T05:49:38.637Z,928.1
2017-04-23T05:50:06.765Z,928.11
2017-04-23T05:50:35.010Z,928.09
2017-04-23T05:51:03.217Z,928.08
2017-04-23T05:51:31.504Z,928.09
2017-04-23T05:51:59.733Z,928.09
2017-04-23T05:52:28.036Z,928.08
2017-04-23T05:52:56.166Z,928.08
2017-04-23T05:54:07.471Z,928.08
2017-04-23T05:54:35.682Z,928.08
2017-04-23T05:55:03.927Z,928.08
2017-04-23T05:55:31.982Z,928.07
2017-04-23T05:56:00.297Z,928.08
2017-04-23T05:56:28.634Z,928.07
2017-04-23T05:56:56.932Z,928.09
2017-04-23T05:57:25.133Z,928.09
2017-04-23T05:57:53.363Z,928.1
2017-04-23T05:58:21.657Z,928.11
2017-04-23T05:58:49.898Z,928.1
2017-04-23T06:00:01.296Z,928.13
2017-04-23T06:00:29.598Z,928.07
2017-04-23T06:00:57.849Z,928.11
2017-04-23T06:01:26.171Z,928.13
2017-04-23T06:01:54.480Z,928.12
2017-04-23T06:02:22.733Z,928.11
2017-04-23T06:02:50.944Z,928.06
2017-04-23T06:03:19.138Z,928.12
2017-04-23T06:03:47.368Z,928.1
2017-04-23T06:04:15.576Z,928.1
2017-04-23T06:04:43.899Z,928.11
2017-04-23T06:05:55.202Z,928.17
2017-04-23T06:06:23.507Z,928.07
2017-04-23T06:06:51.753Z,928.08
2017-04-23T06:07:20.048Z,928.09
2017-04-23T06:07:48.362Z,928.07
2017-04-23T06:08:16.701Z,928.1
2017-04-23T06:08:45.002Z,928.15
2017-04-23T06:09:13.287Z,928.09
2017-04-23T06:09:41.517Z,928.12
2017-04-23T06:10:09.731Z,928.1
2017-04-23T06:10:38.058Z,928.09
2017-04-23T06:11:49.456Z,928.12
2017-04-23T06:12:17.755Z,928.11
2017-04-23T06:12:45.909Z,928.12
2017-04-23T06:13:14.138Z,928.1
2017-04-23T06:13:42.261Z,928.05
2017-04-23T06:14:10.439Z,928.12
2017-04-23T06:14:38.739Z,928.18
2017-04-23T06:15:07.026Z,928.13
2017-04-23T06:15:35.167Z,928.13
2017-04-23T06:16:03.375Z,928.13
2017-04-23T06:16:31.605Z,928.11
2017-04-23T06:17:42.913Z,928.15
2017-04-23T06:18:11.214Z,928.16
2017-04-23T06:18:39.467Z,928.15
2017-04-23T06:19:07.515Z,928.15
2017-04-23T06:19:35.825Z,928.18
2017-04-23T06:20:03.975Z,928.16
2017-04-23T06:20:32.275Z,928.14
2017-04-23T06:21:00.469Z,928.18
2017-04-23T06:21:28.699Z,928.17
2017-04-23T06:21:56.910Z,928.17
2017-04-23T06:22:25.135Z,928.15
2017-04-23T06:23:36.536Z,928.14
2017-04-23T06:24:04.842Z,928.13
2017-04-23T06:24:33.004Z,928.14
2017-04-23T06:25:01.231Z,928.12
2017-04-23T06:25:29.352Z,928.15
2017-04-23T06:25:57.693Z,928.16
2017-04-23T06:26:25.994Z,928.15
2017-04-23T06:26:54.186Z,928.19
2017-04-23T06:27:22.419Z,928.13
2017-04-23T06:27:50.624Z,928.15
2017-04-23T06:28:18.658Z,928.18
2017-04-23T06:29:29.971Z,928.22
2017-04-23T06:29:58.191Z,928.17
2017-04-23T06:30:26.441Z,928.19
2017-04-23T06:30:54.670Z,928.18
2017-04-23T06:31:22.890Z,928.21
2017-04-23T06:31:51.135Z,928.19
2017-04-23T06:32:19.341Z,928.18
2017-04-23T06:32:47.631Z,928.18
2017-04-23T06:33:15.950Z,928.16
2017-04-23T06:33:44.062Z,928.14
2017-04-23T06:34:12.293Z,928.15
2017-04-23T06:35:23.601Z,928.14
2017-04-23T06:35:51.899Z,928.2
2017-04-23T06:36:20.151Z,928.18
2017-04-23T06:36:48.397Z,928.19
2017-04-23T06:37:16.707Z,928.2
2017-04-23T06:37:44.853Z,928.2
2017-04-23T06:38:13.149Z,928.21
2017-04-23T06:38:41.443Z,928.22
2017-04-23T06:39:09.770Z,928.2
2017-04-23T06:39:37.881Z,928.23
2017-04-23T06:40:06.202Z,928.17
2017-04-23T06:41:17.512Z,928.22
2017-04-23T06:41:45.715Z,928.22
2017-04-23T06:42:13.964Z,928.25
2017-04-23T06:42:42.287Z,928.21